Time;durP1;ratioP1;P1;durP2;ratioP2;P2;SDS_P1;SDS_P2;PMS_P1;PMS_P2;Temp;Humidity;BMP_temperature;BMP_pressure;BME280_temperature;BME280_humidity;BME280_pressure;Samples;Min_cycle;Max_cycle;Signal;HPM_P1;HPM_P2
2022/04/26 03:36:06;;;;;;;2.72;1.80;;;;;;;18.78;43.24;100374.41;1772384;80;20850;-91
2022/04/26 03:38:32;;;;;;;2.47;2.00;;;;;;;18.78;43.25;100381.30;1772501;80;21669;-91
2022/04/26 03:40:59;;;;;;;4.50;2.45;;;;;;;18.79;43.24;100384.87;1772222;81;20870;-91
2022/04/26 03:43:25;;;;;;;3.17;2.27;;;;;;;18.79;43.24;100389.00;1772421;80;20924;-91
2022/04/26 03:45:52;;;;;;;3.77;2.25;;;;;;;18.80;43.25;100392.02;1772686;80;20941;-91
2022/04/26 03:48:19;;;;;;;4.47;2.75;;;;;;;18.79;43.25;100394.52;1772139;79;20921;-91
2022/04/26 03:50:45;;;;;;;3.10;2.47;;;;;;;18.80;43.26;100389.26;1772507;80;21413;-91
2022/04/26 03:53:11;;;;;;;2.98;2.22;;;;;;;18.80;43.29;100392.80;1772749;80;21393;-91
2022/04/26 03:55:37;;;;;;;5.28;2.50;;;;;;;18.80;43.30;100395.55;1772267;80;21004;-91
2022/04/26 03:58:04;;;;;;;5.15;2.87;;;;;;;18.80;43.30;100394.17;1772601;79;20944;-92
2022/04/26 04:00:30;;;;;;;5.08;2.62;;;;;;;18.82;43.32;100396.63;1772588;80;20964;-91
2022/04/26 04:02:56;;;;;;;4.35;3.37;;;;;;;18.80;43.28;100392.80;1772390;79;21050;-91
2022/04/26 04:05:22;;;;;;;5.17;2.80;;;;;;;18.82;43.29;100405.72;1772532;80;20845;-91
2022/04/26 04:07:48;;;;;;;4.03;3.22;;;;;;;18.83;43.28;100405.16;1772649;80;20940;-91
2022/04/26 04:10:14;;;;;;;5.40;3.30;;;;;;;18.84;43.27;100404.03;1772352;80;21226;-91
2022/04/26 04:12:40;;;;;;;4.87;3.70;;;;;;;18.83;43.27;100405.97;1772490;80;21353;-91
2022/04/26 04:15:08;;;;;;;4.33;3.00;;;;;;;18.83;43.25;100410.11;1765865;79;21272;-91
2022/04/26 04:17:34;;;;;;;3.77;3.00;;;;;;;18.84;43.26;100415.84;1772322;80;20917;-91
2022/04/26 04:20:00;;;;;;;6.80;3.20;;;;;;;18.84;43.25;100418.60;1772491;80;20916;-91
2022/04/26 04:22:27;;;;;;;3.00;2.60;;;;;;;18.85;43.24;100420.80;1772621;80;20932;-91
2022/04/26 04:24:53;;;;;;;4.03;3.08;;;;;;;18.85;43.26;100421.61;1769293;81;21357;-91
2022/04/26 04:27:19;;;;;;;4.35;3.00;;;;;;;18.85;43.26;100429.88;1772417;80;20985;-90
2022/04/26 04:29:45;;;;;;;4.85;3.30;;;;;;;18.85;43.27;100434.02;1772749;80;20912;-91
2022/04/26 04:32:11;;;;;;;4.87;2.95;;;;;;;18.85;43.26;100440.91;1772378;80;21412;-91
2022/04/26 04:34:37;;;;;;;4.03;3.10;;;;;;;18.86;43.26;100441.73;1772787;81;21282;-91
2022/04/26 04:37:04;;;;;;;3.52;3.05;;;;;;;18.87;43.26;100446.12;1772733;80;20901;-91
2022/04/26 04:39:30;;;;;;;4.78;3.15;;;;;;;18.86;43.29;100438.41;1772553;80;21700;-91
2022/04/26 04:41:56;;;;;;;3.90;2.85;;;;;;;18.87;43.29;100446.12;1772562;80;20924;-91
2022/04/26 04:44:22;;;;;;;6.22;3.27;;;;;;;18.87;43.30;100446.94;1772727;80;20988;-91
2022/04/26 04:46:49;;;;;;;4.17;3.15;;;;;;;18.88;43.28;100450.51;1772508;80;20956;-91
2022/04/26 04:49:15;;;;;;;6.25;3.62;;;;;;;18.87;43.30;100455.20;1772506;80;21367;-91
2022/04/26 04:51:41;;;;;;;4.83;3.62;;;;;;;18.88;43.30;100450.51;1772783;81;21252;-91
2022/04/26 04:54:07;;;;;;;4.62;3.37;;;;;;;18.88;43.29;100456.02;1772611;80;20932;-91
2022/04/26 04:56:33;;;;;;;4.75;3.85;;;;;;;18.87;43.31;100458.52;1772749;80;20877;-91
2022/04/26 04:58:59;;;;;;;4.10;3.20;;;;;;;18.87;43.32;100456.58;1772747;79;20858;-91
2022/04/26 05:01:25;;;;;;;4.70;3.40;;;;;;;18.88;43.32;100461.53;1772402;80;21471;-91
2022/04/26 05:03:52;;;;;;;3.75;3.35;;;;;;;18.87;43.33;100466.23;1772920;80;21039;-92
2022/04/26 05:06:18;;;;;;;4.80;3.37;;;;;;;18.88;43.35;100473.38;1772744;80;21504;-91
2022/04/26 05:08:45;;;;;;;3.67;3.15;;;;;;;18.88;43.35;100476.14;1772291;80;20932;-91
2022/04/26 05:11:11;;;;;;;7.40;3.90;;;;;;;18.88;43.33;100477.52;1772648;80;21338;-91
2022/04/26 05:13:37;;;;;;;4.70;3.47;;;;;;;18.88;43.36;100474.76;1772758;81;20944;-91
2022/04/26 05:16:04;;;;;;;6.00;3.90;;;;;;;18.88;43.36;100480.27;1772477;80;21290;-91
2022/04/26 05:18:31;;;;;;;4.33;3.20;;;;;;;18.89;43.35;100479.67;1772296;80;20913;-91
2022/04/26 05:20:56;;;;;;;4.00;3.10;;;;;;;18.89;43.37;100480.50;1772670;81;20869;-91
2022/04/26 05:26:07;;;;;;;5.42;3.62;;;;;;;18.90;43.38;100480.75;1750408;79;21334;-91
2022/04/26 05:28:33;;;;;;;4.80;3.62;;;;;;;18.89;43.37;100483.25;1774548;80;21253;-91
2022/04/26 05:30:59;;;;;;;7.83;3.95;;;;;;;18.90;43.38;100486.83;1777726;80;20893;-91
2022/04/26 05:33:26;;;;;;;6.53;3.60;;;;;;;18.90;43.42;100489.02;1741620;81;21658;-91
2022/04/26 05:35:52;;;;;;;4.42;3.58;;;;;;;18.90;43.42;100493.72;1777451;79;20980;-91
2022/04/26 05:38:18;;;;;;;4.83;3.90;;;;;;;18.90;43.43;100498.67;1748242;81;21574;-91
2022/04/26 05:40:44;;;;;;;5.15;3.60;;;;;;;18.90;43.43;100500.61;1778137;80;21106;-91
2022/04/26 05:43:10;;;;;;;6.33;3.40;;;;;;;18.90;43.43;100500.61;1775142;80;20861;-91
2022/04/26 05:45:36;;;;;;;4.15;3.20;;;;;;;18.91;43.43;100500.87;1747964;82;20942;-91
2022/04/26 05:48:04;;;;;;;3.92;2.83;;;;;;;18.90;43.44;100505.56;1776886;80;20924;-91
2022/04/26 05:50:30;;;;;;;3.87;3.45;;;;;;;18.91;43.42;100509.14;1747391;81;20875;-91
2022/04/26 05:52:56;;;;;;;4.80;3.20;;;;;;;18.91;43.42;100512.71;1777257;80;21011;-91
2022/04/26 05:55:22;;;;;;;4.70;3.05;;;;;;;18.92;43.42;100516.28;1747582;81;20957;-91
2022/04/26 05:57:48;;;;;;;4.83;3.40;;;;;;;18.92;43.42;100519.05;1777225;80;21444;-91
2022/04/26 06:00:15;;;;;;;4.67;3.25;;;;;;;18.93;43.44;100515.95;1747664;82;20949;-91
2022/04/26 06:02:41;;;;;;;3.77;2.80;;;;;;;18.94;43.42;100518.15;1777025;80;21023;-91
2022/04/26 06:05:09;;;;;;;5.35;3.50;;;;;;;18.93;43.43;100513.20;1773954;80;21883;-91
2022/04/26 06:07:35;;;;;;;4.20;3.20;;;;;;;18.94;43.43;100520.34;1780680;80;20994;-91
2022/04/26 06:10:01;;;;;;;4.28;3.47;;;;;;;18.94;43.45;100516.22;1778186;79;20940;-91
2022/04/26 06:12:27;;;;;;;4.62;3.20;;;;;;;18.94;43.45;100517.59;1748279;81;20917;-92
2022/04/26 06:14:56;;;;;;;3.20;2.70;;;;;;;18.95;43.43;100515.66;1778623;80;21887;-91
2022/04/26 06:17:23;;;;;;;4.20;3.17;;;;;;;18.95;43.43;100517.85;1748737;81;21008;-91
2022/04/26 06:19:49;;;;;;;6.22;3.42;;;;;;;18.95;43.45;100519.78;1778278;80;21349;-91
2022/04/26 06:22:16;;;;;;;3.75;2.85;;;;;;;18.95;43.45;100515.09;1748732;81;21544;-90
2022/04/26 06:24:42;;;;;;;4.03;3.08;;;;;;;18.95;43.43;100518.41;1778818;80;21202;-91
2022/04/26 06:27:08;;;;;;;5.47;3.10;;;;;;;18.95;43.42;100516.47;1778689;80;20917;-91
2022/04/26 06:29:34;;;;;;;4.40;3.27;;;;;;;18.96;43.42;100520.86;1776303;80;21176;-91
2022/04/26 06:32:02;;;;;;;4.10;3.12;;;;;;;18.97;43.42;100518.89;1743433;82;20931;-92
2022/04/26 06:34:28;;;;;;;4.78;3.22;;;;;;;18.97;43.41;100527.98;1757957;81;20977;-91
2022/04/26 06:36:54;;;;;;;5.37;3.35;;;;;;;18.97;43.44;100522.47;1774771;80;20964;-91
2022/04/26 06:39:20;;;;;;;3.87;2.98;;;;;;;18.97;43.44;100529.36;1742571;82;20932;-91
2022/04/26 06:41:47;;;;;;;4.90;2.95;;;;;;;18.98;43.41;100532.94;1758201;80;21693;-90
2022/04/26 06:44:13;;;;;;;3.22;2.80;;;;;;;18.98;43.44;100529.62;1785249;79;20872;-91
2022/04/26 06:46:39;;;;;;;4.85;3.00;;;;;;;18.98;43.44;100528.24;1775120;80;21413;-91
2022/04/26 06:49:05;;;;;;;4.65;3.00;;;;;;;18.99;43.41;100530.44;1774750;80;21001;-91
2022/04/26 06:51:40;;;;;;;5.08;3.22;;;;;;;18.98;43.41;100533.75;1784933;79;21449;-91
2022/04/26 06:54:04;;;;;;;5.33;3.37;;;;;;;18.98;43.43;100526.86;1772830;79;21516;-91
2022/04/26 06:56:30;;;;;;;4.50;3.00;;;;;;;18.99;43.40;100535.39;1766564;80;21007;-91
2022/04/26 06:58:57;;;;;;;4.05;2.92;;;;;;;18.98;43.41;100533.75;1779251;79;21382;-91
2022/04/26 07:01:23;;;;;;;4.03;2.30;;;;;;;19.00;43.40;100541.73;1743083;82;20948;-91
2022/04/26 07:03:49;;;;;;;4.05;2.12;;;;;;;18.98;43.36;100535.70;1752060;81;21094;-91
2022/04/26 07:06:15;;;;;;;3.33;2.37;;;;;;;18.98;43.30;100528.24;1748158;82;21248;-92
2022/04/26 07:08:41;;;;;;;5.50;2.60;;;;;;;18.98;43.31;100526.05;1750347;82;20905;-92
2022/04/26 07:11:07;;;;;;;5.83;2.05;;;;;;;18.99;43.27;100528.50;1750074;81;21022;-91
2022/04/26 07:13:33;;;;;;;4.85;2.10;;;;;;;18.99;43.26;100525.74;1750371;82;20972;-91
2022/04/26 07:16:00;;;;;;;4.45;2.10;;;;;;;19.00;43.24;100525.19;1750048;82;21512;-91
2022/04/26 07:18:26;;;;;;;2.55;1.87;;;;;;;19.01;43.22;100526.81;1741682;80;21015;-92
2022/04/26 07:20:52;;;;;;;3.05;1.85;;;;;;;19.01;43.20;100529.58;1774794;80;21536;-90
2022/04/26 07:23:24;;;;;;;3.77;2.20;;;;;;;19.02;43.22;100536.70;1741909;80;20964;-91
2022/04/26 07:25:52;;;;;;;2.85;2.25;;;;;;;19.02;43.20;100536.13;1758990;80;21362;-91
2022/04/26 07:28:19;;;;;;;7.12;2.22;;;;;;;19.02;43.18;100538.89;1749834;81;21422;-90
2022/04/26 07:30:45;;;;;;;3.37;2.00;;;;;;;19.04;43.17;100539.97;1776261;80;21270;-90
2022/04/26 07:35:56;;;;;;;4.50;1.95;;;;;;;19.05;43.14;100545.74;1777433;80;21009;-91
2022/04/26 07:38:22;;;;;;;6.50;2.20;;;;;;;19.05;43.07;100545.74;1782642;79;20967;-91
2022/04/26 07:40:49;;;;;;;8.83;2.30;;;;;;;19.05;42.99;100552.05;1754542;80;36588;-92
2022/04/26 07:43:22;;;;;;;3.80;1.60;;;;;;;19.05;42.96;100546.53;1781521;79;21566;-91
2022/04/26 07:45:48;;;;;;;4.70;2.25;;;;;;;19.06;42.93;100548.72;1751582;79;20933;-91
2022/04/26 07:48:16;;;;;;;5.30;2.17;;;;;;;19.07;42.98;100555.87;1735289;80;20981;-91
2022/04/26 07:50:42;;;;;;;5.65;2.95;;;;;;;19.07;43.03;100557.25;1754979;80;20974;-91
2022/04/26 07:53:08;;;;;;;4.22;1.98;;;;;;;19.08;43.07;100555.58;1726186;81;21209;-91
2022/04/26 07:55:36;;;;;;;4.87;2.45;;;;;;;19.09;43.12;100555.83;1744863;82;21726;-91
2022/04/26 07:58:02;;;;;;;6.92;2.15;;;;;;;19.10;43.11;100552.48;1764613;80;21424;-91
2022/04/26 08:00:28;;;;;;;3.30;1.82;;;;;;;19.11;43.13;100560.45;1773831;80;20941;-91
2022/04/26 08:02:55;;;;;;;4.58;2.20;;;;;;;19.12;43.10;100556.58;1746711;82;21433;-91
2022/04/26 08:05:27;;;;;;;8.45;2.65;;;;;;;19.11;43.10;100565.97;1777498;80;21610;-91
2022/04/26 08:07:53;;;;;;;3.75;2.10;;;;;;;19.12;43.16;100557.95;1747198;82;21643;-92
2022/04/26 08:10:19;;;;;;;9.43;5.58;;;;;;;19.13;43.21;100566.48;1797538;79;20941;-92
2022/04/26 08:12:45;;;;;;;6.97;3.52;;;;;;;19.14;43.22;100565.34;1780048;79;20959;-91
2022/04/26 08:15:13;;;;;;;5.55;3.22;;;;;;;19.15;43.27;100562.84;1753085;81;20945;-92
2022/04/26 08:17:41;;;;;;;6.10;2.85;;;;;;;19.17;43.28;100562.53;1779982;80;21276;-91
2022/04/26 08:20:14;;;;;;;3.15;2.55;;;;;;;19.17;43.26;100563.91;1776362;80;21264;-92
2022/04/26 08:22:40;;;;;;;4.72;2.80;;;;;;;19.18;43.25;100567.48;1774998;80;20976;-92
2022/04/26 08:27:51;;;;;;;4.67;2.80;;;;;;;19.18;43.25;100573.23;1774644;80;20914;-92
2022/04/26 08:30:17;;;;;;;3.37;2.25;;;;;;;19.18;43.26;100563.35;1774893;80;20870;-92
2022/04/26 08:32:45;;;;;;;5.15;2.70;;;;;;;19.16;43.25;100563.09;1774839;80;21225;-92
2022/04/26 08:35:16;;;;;;;4.55;2.77;;;;;;;19.16;43.28;100558.95;1774916;80;20870;-92
2022/04/26 08:37:43;;;;;;;4.37;2.58;;;;;;;19.16;43.30;100565.85;1774958;79;20910;-91
2022/04/26 08:40:09;;;;;;;4.03;2.40;;;;;;;19.17;43.30;100565.29;1775441;80;21316;-92
2022/04/26 08:42:40;;;;;;;3.52;2.50;;;;;;;19.16;43.33;100565.85;1775041;80;20901;-92
2022/04/26 08:45:09;;;;;;;;;;;;;;;19.16;43.34;100564.47;1777942;80;21098;-91
2022/04/26 08:53:05;;;;;;;3.25;2.20;;;;;;;19.14;43.37;100562.58;1777087;80;21622;-92
2022/04/26 08:55:32;;;;;;;4.00;2.10;;;;;;;19.13;43.38;100558.22;1777595;80;20992;-92
2022/04/26 08:57:59;;;;;;;3.67;2.05;;;;;;;19.14;43.40;100561.20;1747982;81;21410;-92
2022/04/26 09:00:25;;;;;;;3.70;2.20;;;;;;;19.13;43.44;100554.08;1777774;80;21003;-92
2022/04/26 09:03:03;;;;;;;3.90;2.27;;;;;;;19.14;43.46;100559.82;1747706;81;21006;-92
2022/04/26 09:05:30;;;;;;;3.75;2.65;;;;;;;19.15;43.48;100564.22;1777740;80;21358;-92
2022/04/26 09:07:56;;;;;;;4.20;2.75;;;;;;;19.15;43.49;100562.84;1747686;81;20808;-92
2022/04/26 09:10:22;;;;;;;3.22;2.33;;;;;;;19.15;43.50;100566.16;1777664;80;21728;-92
2022/04/26 09:13:09;;;;;;;4.50;2.33;;;;;;;19.15;43.51;100562.02;1777519;80;20905;-92
2022/04/26 09:15:49;;;;;;;2.65;2.15;;;;;;;19.15;43.52;100563.39;1777838;80;20904;-92
2022/04/26 09:18:28;;;;;;;2.63;2.03;;;;;;;19.16;43.54;100569.17;1746530;80;20871;-92
2022/04/26 09:20:58;;;;;;;4.53;2.50;;;;;;;19.15;43.56;100561.45;1746852;81;20952;-92
2022/04/26 09:23:27;;;;;;;4.23;2.47;;;;;;;19.15;43.57;100564.22;1730395;82;21103;-92
2022/04/26 09:26:09;;;;;;;3.47;2.40;;;;;;;19.15;43.58;100564.22;1777378;80;20936;-92
2022/04/26 09:28:37;;;;;;;3.55;2.22;;;;;;;19.16;43.62;100563.66;1747989;81;20885;-91
2022/04/26 09:31:22;;;;;;;2.67;2.22;;;;;;;19.15;43.62;100566.97;1773209;80;21374;-92
2022/04/26 09:33:53;;;;;;;3.37;2.27;;;;;;;19.15;43.62;100568.35;1755566;81;20937;-91
2022/04/26 09:36:21;;;;;;;2.98;2.40;;;;;;;19.16;43.64;100561.72;1772918;80;21589;-92
2022/04/26 09:38:58;;;;;;;3.67;2.25;;;;;;;19.16;43.68;100560.89;1755791;81;21441;-92
2022/04/26 09:41:27;;;;;;;2.98;2.08;;;;;;;19.16;43.67;100553.44;1772494;80;20924;-92
2022/04/26 09:44:01;;;;;;;3.70;2.33;;;;;;;19.17;43.67;100561.16;1740707;81;20976;-92
2022/04/26 09:46:47;;;;;;;4.17;1.90;;;;;;;19.17;43.69;100558.39;1755641;81;20968;-91
2022/04/26 09:49:18;;;;;;;3.98;2.12;;;;;;;19.16;43.70;100552.06;1746412;81;21173;-91
2022/04/26 09:51:45;;;;;;;2.90;2.17;;;;;;;19.16;43.70;100553.44;1772607;81;20964;-92
2022/04/26 09:54:11;;;;;;;3.35;2.42;;;;;;;19.16;43.71;100546.55;1755790;81;20968;-92
2022/04/26 09:56:38;;;;;;;2.70;1.92;;;;;;;19.18;43.76;100548.19;1772736;81;21357;-92
2022/04/26 09:59:04;;;;;;;3.40;2.30;;;;;;;19.17;43.75;100544.61;1755600;81;20973;-92
2022/04/26 10:01:47;;;;;;;4.20;2.30;;;;;;;19.16;43.76;100542.41;1772981;80;21815;-92
2022/04/26 10:04:20;;;;;;;2.42;1.98;;;;;;;19.18;43.76;100541.29;1772341;81;21330;-92
2022/04/26 10:06:47;;;;;;;2.50;2.02;;;;;;;19.18;43.77;100535.77;1772669;81;20936;-92
2022/04/26 10:09:13;;;;;;;3.05;2.10;;;;;;;19.18;43.78;100544.84;1752749;81;21000;-92
2022/04/26 10:11:39;;;;;;;3.40;3.08;;;;;;;19.18;43.77;100534.63;1772457;80;20944;-92
2022/04/26 10:14:13;;;;;;;3.72;2.47;;;;;;;19.18;43.81;100534.39;1772994;81;21136;-92
2022/04/26 10:16:40;;;;;;;3.45;2.42;;;;;;;19.18;43.83;100524.97;1755515;81;20985;-92
2022/04/26 10:19:12;;;;;;;5.28;2.05;;;;;;;19.19;43.84;100529.92;1770729;81;20936;-92
2022/04/26 10:21:45;;;;;;;2.72;1.90;;;;;;;19.18;43.85;100529.11;1772813;81;20909;-92
2022/04/26 10:24:25;;;;;;;2.42;1.87;;;;;;;19.19;43.87;100531.30;1743767;81;20898;-92
2022/04/26 10:26:52;;;;;;;2.95;2.25;;;;;;;19.20;43.83;100536.26;1772667;81;21614;-92
2022/04/26 10:29:20;;;;;;;3.60;2.10;;;;;;;19.18;43.84;100530.48;1768789;80;20884;-92
2022/04/26 10:31:59;;;;;;;2.72;2.17;;;;;;;19.19;43.87;100529.92;1738156;82;20890;-92
2022/04/26 10:34:30;;;;;;;3.80;2.42;;;;;;;19.21;43.88;100536.52;1737729;82;20937;-92
2022/04/26 10:37:10;;;;;;;3.27;2.30;;;;;;;19.20;43.87;100527.98;1738112;82;20940;-92
2022/04/26 10:39:42;;;;;;;2.42;1.95;;;;;;;19.20;43.89;100525.23;1737361;82;21125;-92
2022/04/26 10:42:21;;;;;;;3.37;2.20;;;;;;;19.20;43.89;100525.23;1736828;82;21168;-92
2022/04/26 10:44:46;;;;;;;2.33;2.00;;;;;;;19.20;43.91;100531.56;1734699;81;20925;-92
2022/04/26 10:47:20;;;;;;;3.27;1.80;;;;;;;19.20;43.92;100521.09;1735723;82;20933;-92
2022/04/26 10:49:47;;;;;;;3.15;2.12;;;;;;;19.19;43.92;100523.03;1737403;82;21048;-91
2022/04/26 10:52:25;;;;;;;3.45;2.15;;;;;;;19.18;43.93;100519.45;1737731;82;21260;-92
2022/04/26 10:54:58;;;;;;;3.60;2.58;;;;;;;19.20;43.94;100524.66;1737604;82;21342;-91
2022/04/26 10:57:39;;;;;;;2.95;2.02;;;;;;;19.20;43.92;100526.61;1737766;82;20933;-90
2022/04/26 11:00:14;;;;;;;2.98;2.02;;;;;;;19.21;43.95;100528.24;1737729;82;20891;-91
2022/04/26 11:02:47;;;;;;;2.67;2.27;;;;;;;19.20;43.96;100528.80;1737479;82;21390;-91
2022/04/26 11:05:16;;;;;;;2.58;1.92;;;;;;;19.20;43.95;100516.95;1736333;82;21193;-91
2022/04/26 11:07:46;;;;;;;3.40;2.33;;;;;;;19.20;43.96;100519.71;1737660;82;20913;-91
2022/04/26 11:10:20;;;;;;;2.47;2.20;;;;;;;19.20;43.98;100520.53;1738382;82;20964;-91
2022/04/26 11:12:46;;;;;;;2.80;2.10;;;;;;;19.21;43.97;100517.21;1737562;82;20905;-91
2022/04/26 11:15:15;;;;;;;3.40;2.10;;;;;;;19.21;43.98;100518.59;1738092;82;20898;-91
2022/04/26 11:17:42;;;;;;;3.42;1.98;;;;;;;19.22;43.99;100511.95;1737726;82;21550;-91
2022/04/26 11:20:22;;;;;;;3.25;1.62;;;;;;;19.21;44.00;100511.13;1737718;81;21015;-91
2022/04/26 11:22:53;;;;;;;3.53;2.07;;;;;;;19.22;44.01;100509.19;1738011;82;20956;-91
2022/04/26 11:28:14;;;;;;;2.80;2.22;;;;;;;19.21;44.02;100509.75;1737475;82;21012;-91
2022/04/26 11:30:44;;;;;;;2.62;1.90;;;;;;;19.22;44.01;100502.30;1754793;80;21140;-91
2022/04/26 11:33:20;;;;;;;3.45;2.20;;;;;;;19.22;44.04;100503.67;1769815;80;20842;-91
2022/04/26 11:35:58;;;;;;;2.12;1.70;;;;;;;19.22;44.08;100501.73;1769790;80;21283;-91
2022/04/26 11:38:24;;;;;;;3.50;1.85;;;;;;;19.23;44.08;100495.63;1770037;80;20910;-90
2022/04/26 11:41:01;;;;;;;3.30;2.20;;;;;;;19.24;44.08;100495.88;1769877;81;20925;-91
2022/04/26 11:43:33;;;;;;;2.83;2.00;;;;;;;19.23;44.10;100498.39;1736283;81;21051;-91
2022/04/26 11:46:00;;;;;;;2.05;1.65;;;;;;;19.23;44.11;100494.25;1769524;81;20905;-91
2022/04/26 11:48:30;;;;;;;3.72;1.80;;;;;;;19.24;44.14;100490.37;1718316;83;20909;-91
2022/04/26 11:50:57;;;;;;;2.37;1.85;;;;;;;19.24;44.14;100490.37;1752956;81;21442;-91
2022/04/26 11:53:29;;;;;;;5.72;2.10;;;;;;;19.24;44.17;100493.12;1734842;82;20929;-91
2022/04/26 11:55:57;;;;;;;2.20;1.85;;;;;;;19.24;44.15;100483.47;1770117;80;21032;-91
2022/04/26 11:58:31;;;;;;;3.27;1.90;;;;;;;19.24;44.17;100486.23;1737854;82;20885;-90
2022/04/26 12:01:11;;;;;;;2.02;1.65;;;;;;;19.24;44.17;100481.53;1747495;82;20862;-91
2022/04/26 12:03:40;;;;;;;4.42;2.00;;;;;;;19.25;44.20;100482.35;1768725;81;20941;-91
2022/04/26 12:06:06;;;;;;;3.22;1.98;;;;;;;19.25;44.19;100474.08;1769231;80;20862;-91
2022/04/26 12:08:48;;;;;;;3.77;1.85;;;;;;;19.26;44.20;100479.29;1770165;81;21186;-91
2022/04/26 12:11:28;;;;;;;2.40;1.72;;;;;;;19.27;44.21;100481.45;1769789;81;21300;-91
2022/04/26 12:14:16;;;;;;;3.00;1.50;;;;;;;19.25;44.20;100463.86;1770073;81;21295;-90
2022/04/26 12:16:47;;;;;;;2.45;1.60;;;;;;;19.26;44.22;100466.88;1769621;80;20933;-90
2022/04/26 12:19:14;;;;;;;3.15;1.95;;;;;;;19.27;44.21;100464.91;1770225;80;20918;-91
2022/04/26 12:21:57;;;;;;;2.67;2.00;;;;;;;19.26;44.22;100471.02;1745050;82;21742;-91
2022/04/26 12:24:26;;;;;;;4.12;1.62;;;;;;;19.27;44.25;100458.02;1769430;80;21342;-91
2022/04/26 12:27:13;;;;;;;2.70;1.98;;;;;;;19.27;44.23;100458.02;1769984;81;21327;-91
2022/04/26 12:29:46;;;;;;;2.00;1.67;;;;;;;19.28;44.26;100451.38;1747671;81;20941;-90
2022/04/26 12:32:17;;;;;;;4.10;1.80;;;;;;;19.27;44.26;100451.93;1769974;81;21405;-90
2022/04/26 12:34:52;;;;;;;2.98;1.80;;;;;;;19.28;44.29;100458.27;1769769;81;21002;-91
2022/04/26 12:37:29;;;;;;;2.00;1.57;;;;;;;19.28;44.30;100452.75;1747725;82;20950;-91
2022/04/26 12:39:55;;;;;;;1.95;1.57;;;;;;;19.28;44.31;100454.95;1769162;80;20890;-90
2022/04/26 12:42:38;;;;;;;1.90;1.57;;;;;;;19.28;44.32;100460.46;1769978;81;21358;-90
2022/04/26 12:45:21;;;;;;;2.22;1.70;;;;;;;19.28;44.33;100452.75;1764313;81;20807;-90
2022/04/26 12:50:33;;;;;;;2.25;1.80;;;;;;;19.29;44.34;100446.11;1733472;81;20855;-91
2022/04/26 12:53:04;;;;;;;3.50;1.70;;;;;;;19.29;44.34;100441.97;1770256;81;20925;-91
2022/04/26 12:55:42;;;;;;;2.30;1.65;;;;;;;19.29;44.34;100437.27;1770123;80;20894;-90
2022/04/26 12:58:14;;;;;;;3.10;1.47;;;;;;;19.29;44.35;100437.84;1770008;81;21517;-91
2022/04/26 13:00:50;;;;;;;2.52;1.70;;;;;;;19.29;44.36;100432.31;1768731;80;21323;-91
2022/04/26 13:03:19;;;;;;;2.20;1.57;;;;;;;19.29;44.37;100429.00;1769986;80;21260;-91
2022/04/26 13:05:49;;;;;;;2.15;1.62;;;;;;;19.29;44.39;100433.70;1770113;80;20878;-90
2022/04/26 13:08:16;;;;;;;2.35;1.72;;;;;;;19.28;44.38;100425.98;1748225;82;21320;-91
2022/04/26 13:10:42;;;;;;;2.12;1.52;;;;;;;19.30;44.38;100430.63;1770033;80;20885;-91
2022/04/26 13:13:09;;;;;;;2.47;1.67;;;;;;;19.31;44.37;100416.28;1770055;81;21340;-91
2022/04/26 13:15:35;;;;;;;1.90;1.60;;;;;;;19.31;44.35;100416.28;1748200;82;20913;-91
2022/04/26 13:18:03;;;;;;;2.25;1.70;;;;;;;19.32;44.34;100419.27;1769948;80;20972;-91
2022/04/26 13:20:29;;;;;;;2.00;1.60;;;;;;;19.31;44.34;100417.06;1748144;82;21648;-91
2022/04/26 13:22:56;;;;;;;2.60;1.65;;;;;;;19.33;44.34;100416.77;1770269;81;20913;-91
2022/04/26 13:25:22;;;;;;;2.87;1.82;;;;;;;19.32;44.32;100418.70;1747940;82;21138;-91
2022/04/26 13:27:48;;;;;;;1.77;1.60;;;;;;;19.33;44.30;100422.27;1770074;81;21227;-91
2022/04/26 13:30:15;;;;;;;2.70;1.85;;;;;;;19.33;44.29;100412.06;1738240;82;20850;-91
2022/04/26 13:32:42;;;;;;;1.95;1.67;;;;;;;19.34;44.28;100408.73;1757329;81;20960;-91
2022/04/26 13:35:09;;;;;;;3.12;1.92;;;;;;;19.34;44.26;100411.50;1775398;80;20897;-91
2022/04/26 13:37:35;;;;;;;2.25;1.75;;;;;;;19.34;44.25;100405.42;1758485;81;20976;-91
2022/04/26 13:40:02;;;;;;;2.30;1.60;;;;;;;19.35;44.24;100403.48;1775004;80;21295;-91
2022/04/26 13:42:30;;;;;;;2.90;1.72;;;;;;;19.35;44.23;100402.88;1758516;81;20858;-91
2022/04/26 13:44:58;;;;;;;2.67;1.75;;;;;;;19.35;44.22;100403.48;1775495;80;20889;-91
2022/04/26 13:47:25;;;;;;;2.45;1.80;;;;;;;19.36;44.21;100409.22;1758250;81;21021;-91
2022/04/26 13:49:54;;;;;;;2.87;1.90;;;;;;;19.36;44.17;100405.08;1775653;80;21127;-91
2022/04/26 13:52:21;;;;;;;2.17;1.67;;;;;;;19.36;44.17;100409.22;1775613;80;20999;-90
2022/04/26 13:54:47;;;;;;;2.67;2.08;;;;;;;19.37;44.16;100409.47;1740640;82;20932;-91
2022/04/26 13:57:14;;;;;;;2.35;1.70;;;;;;;19.37;44.16;100405.34;1728731;82;21455;-91
2022/04/26 13:59:41;;;;;;;1.90;1.60;;;;;;;19.37;44.14;100403.39;1775528;80;20975;-90
2022/04/26 14:02:07;;;;;;;1.98;1.57;;;;;;;19.38;44.14;100412.48;1775425;80;21161;-91
2022/04/26 14:04:34;;;;;;;2.45;1.70;;;;;;;19.36;44.13;100408.66;1775809;80;20956;-91
2022/04/26 14:07:00;;;;;;;1.98;1.52;;;;;;;19.38;44.12;100419.38;1775229;80;20876;-91
2022/04/26 14:09:32;;;;;;;3.35;1.82;;;;;;;19.38;44.12;100407.78;1775194;80;20874;-90
2022/04/26 14:11:58;;;;;;;2.67;1.90;;;;;;;19.39;44.08;100408.01;1774580;80;20964;-91
2022/04/26 14:22:35;;;;;;;2.72;1.50;;;;;;;19.38;44.04;100405.59;1738132;82;21473;-91
2022/04/26 14:25:04;;;;;;;3.08;1.50;;;;;;;19.38;44.05;100408.34;1758531;81;20898;-91
2022/04/26 14:27:31;;;;;;;2.10;1.60;;;;;;;19.37;44.04;100402.58;1775785;80;21035;-90
2022/04/26 14:29:57;;;;;;;3.90;1.92;;;;;;;19.36;44.02;100393.48;1775554;80;20985;-91
2022/04/26 14:32:23;;;;;;;2.17;1.60;;;;;;;19.38;44.02;100406.97;1775149;80;21355;-91
2022/04/26 14:34:49;;;;;;;1.87;1.60;;;;;;;19.38;44.02;100400.08;1775083;80;20850;-91
2022/04/26 14:37:16;;;;;;;2.22;1.60;;;;;;;19.39;44.04;100403.09;1774940;80;20839;-91
2022/04/26 14:39:42;;;;;;;2.87;1.67;;;;;;;19.39;44.00;100396.19;1747914;82;21874;-91
2022/04/26 14:42:09;;;;;;;2.08;1.65;;;;;;;19.38;44.01;100396.75;1777784;80;20925;-91
2022/04/26 14:44:36;;;;;;;2.87;1.90;;;;;;;19.39;44.00;100394.81;1747711;82;20941;-91
2022/04/26 14:47:03;;;;;;;2.40;1.52;;;;;;;19.40;44.00;100390.89;1777577;80;21338;-91
2022/04/26 14:49:30;;;;;;;2.50;1.65;;;;;;;19.41;43.99;100396.67;1748043;81;20981;-90
2022/04/26 14:52:03;;;;;;;2.15;1.47;;;;;;;19.40;43.98;100394.47;1777520;80;21071;-91
2022/04/26 14:54:29;;;;;;;2.05;1.50;;;;;;;19.41;43.96;100389.77;1741963;82;20945;-91
2022/04/26 14:56:55;;;;;;;2.22;1.50;;;;;;;19.41;43.97;100396.10;1777737;80;20929;-91
2022/04/26 14:59:25;;;;;;;2.12;1.62;;;;;;;19.41;43.93;100385.06;1747861;81;20996;-91
2022/04/26 15:01:52;;;;;;;1.90;1.60;;;;;;;19.42;43.96;100383.95;1777579;80;20928;-91
2022/04/26 15:04:22;;;;;;;4.17;1.90;;;;;;;19.42;43.93;100391.41;1747950;81;21194;-91
2022/04/26 15:06:49;;;;;;;2.12;1.55;;;;;;;19.43;43.91;100392.51;1777391;80;20857;-91
2022/04/26 15:17:28;;;;;;;1.85;1.62;;;;;;;19.43;43.87;100388.37;1760956;80;21125;-91
2022/04/26 15:19:54;;;;;;;2.30;1.65;;;;;;;19.43;43.88;100387.55;1747400;81;20992;-90
2022/04/26 15:22:21;;;;;;;2.35;1.57;;;;;;;19.44;43.85;100387.77;1777945;80;20889;-90
2022/04/26 15:24:47;;;;;;;2.30;1.52;;;;;;;19.43;43.87;100387.55;1747646;81;20962;-90
2022/04/26 15:27:18;;;;;;;2.33;1.67;;;;;;;19.44;43.85;100390.53;1777737;80;20960;-90
2022/04/26 15:29:45;;;;;;;2.22;1.70;;;;;;;19.44;43.84;100389.97;1747940;81;21689;-91
2022/04/26 15:32:11;;;;;;;2.08;1.52;;;;;;;19.44;43.81;100394.11;1777448;79;20885;-91
2022/04/26 15:34:37;;;;;;;2.72;1.60;;;;;;;19.45;43.82;100395.74;1748133;81;21390;-91
2022/04/26 15:37:05;;;;;;;2.42;1.50;;;;;;;19.45;43.82;100395.74;1778072;80;21007;-91
2022/04/26 15:39:31;;;;;;;2.33;1.70;;;;;;;19.45;43.80;100392.98;1748157;82;20953;-91
2022/04/26 15:41:57;;;;;;;2.85;1.47;;;;;;;19.46;43.80;100397.38;1777663;80;21667;-91